Time;durP1;ratioP1;P1;durP2;ratioP2;P2;SDS_P1;SDS_P2;PMS_P1;PMS_P2;Temp;Humidity;BMP_temperature;BMP_pressure;BME280_temperature;BME280_humidity;BME280_pressure;Samples;Min_cycle;Max_cycle;Signal;HPM_P1;HPM_P2
2021/04/22 00:01:50;;;;;;;12.00;3.47;;;6.40;72.00;;;;;;5031065;28;20040;-59
2021/04/22 00:04:16;;;;;;;14.80;3.80;;;6.20;72.90;;;;;;5018075;28;20030;-59
2021/04/22 00:06:41;;;;;;;10.07;3.53;;;6.10;73.50;;;;;;5021286;28;20121;-56
2021/04/22 00:09:10;;;;;;;16.10;3.75;;;6.30;73.00;;;;;;5026043;28;20127;-59
2021/04/22 00:11:36;;;;;;;14.95;4.03;;;6.30;73.10;;;;;;5030273;28;20038;-59
2021/04/22 00:14:04;;;;;;;11.45;3.78;;;6.20;73.30;;;;;;5028594;28;20032;-57
2021/04/22 00:16:30;;;;;;;13.10;3.63;;;6.10;73.50;;;;;;5026089;28;20026;-58
2021/04/22 00:18:56;;;;;;;14.57;3.75;;;6.30;73.30;;;;;;5026653;28;20060;-57
2021/04/22 00:21:21;;;;;;;12.07;4.10;;;6.40;72.80;;;;;;5033570;28;20022;-56
2021/04/22 00:23:47;;;;;;;13.60;3.97;;;6.20;72.80;;;;;;5033664;28;20374;-55
2021/04/22 00:26:12;;;;;;;12.80;4.10;;;6.30;73.20;;;;;;5030688;28;20067;-57
2021/04/22 00:28:38;;;;;;;9.98;3.90;;;6.20;73.20;;;;;;5023895;28;20038;-54
2021/04/22 00:31:03;;;;;;;10.18;3.92;;;6.10;73.80;;;;;;5022690;28;20034;-63
2021/04/22 00:33:29;;;;;;;13.90;4.20;;;6.10;74.10;;;;;;5026610;28;20128;-56
2021/04/22 00:35:55;;;;;;;15.48;4.30;;;6.20;73.50;;;;;;5019306;28;20078;-57
2021/04/22 00:38:20;;;;;;;17.30;3.83;;;6.20;73.40;;;;;;5018150;28;20034;-58
2021/04/22 00:40:48;;;;;;;10.63;4.57;;;6.00;74.20;;;;;;5011908;28;20029;-60
2021/04/22 00:43:15;;;;;;;12.63;4.13;;;5.90;74.20;;;;;;5019139;28;20401;-58
2021/04/22 00:45:42;;;;;;;15.25;3.83;;;6.00;74.10;;;;;;5012019;28;20026;-52
2021/04/22 00:48:12;;;;;;;15.30;3.85;;;6.10;73.80;;;;;;5020927;28;20041;-57
2021/04/22 00:50:42;;;;;;;12.73;3.88;;;6.20;73.80;;;;;;5031889;28;20120;-58
2021/04/22 00:53:08;;;;;;;13.82;4.68;;;6.20;72.40;;;;;;5026966;28;20492;-51
2021/04/22 00:55:34;;;;;;;16.35;4.15;;;6.20;72.20;;;;;;5019459;28;20034;-55
2021/04/22 00:58:04;;;;;;;21.50;4.90;;;6.00;72.90;;;;;;5022319;28;20034;-57
2021/04/22 01:00:39;;;;;;;19.27;4.53;;;5.90;73.00;;;;;;5017032;28;20030;-58
2021/04/22 01:03:06;;;;;;;16.25;4.35;;;6.00;73.00;;;;;;5019461;28;20058;-60
2021/04/22 01:05:36;;;;;;;18.65;5.03;;;6.10;72.80;;;;;;5018511;28;20485;-56
2021/04/22 01:08:02;;;;;;;17.58;4.40;;;6.10;72.50;;;;;;5018162;28;20547;-55
2021/04/22 01:10:28;;;;;;;9.63;4.20;;;6.10;72.70;;;;;;5029222;28;20033;-58
2021/04/22 01:12:54;;;;;;;19.38;5.15;;;5.90;73.00;;;;;;5012868;28;20125;-60
2021/04/22 01:15:23;;;;;;;17.73;5.22;;;5.90;73.10;;;;;;5032925;28;20038;-58
2021/04/22 01:17:49;;;;;;;13.43;4.65;;;5.70;73.60;;;;;;5040391;28;20064;-59
2021/04/22 01:20:17;;;;;;;18.00;5.75;;;5.60;73.90;;;;;;5014704;28;20049;-57
2021/04/22 01:22:43;;;;;;;18.00;4.57;;;5.70;73.40;;;;;;5032198;28;20039;-54
2021/04/22 01:25:11;;;;;;;18.95;5.22;;;5.80;73.00;;;;;;5025735;28;20026;-58
2021/04/22 01:27:40;;;;;;;16.23;5.60;;;6.00;72.30;;;;;;5016392;28;20057;-57
2021/04/22 01:30:09;;;;;;;19.58;4.57;;;6.10;72.10;;;;;;5023962;28;20494;-56
2021/04/22 01:32:35;;;;;;;19.67;5.07;;;5.80;72.40;;;;;;5023024;28;20044;-60
2021/04/22 01:35:01;;;;;;;19.52;5.30;;;5.80;72.80;;;;;;5027069;28;20033;-58
2021/04/22 01:37:28;;;;;;;16.83;4.38;;;5.70;72.70;;;;;;5034917;28;20116;-56
2021/04/22 01:39:54;;;;;;;24.52;6.18;;;5.90;72.50;;;;;;5044842;28;20032;-55
2021/04/22 01:42:19;;;;;;;20.17;5.68;;;5.80;72.50;;;;;;5022509;28;20038;-59
2021/04/22 01:44:46;;;;;;;19.42;6.00;;;5.70;72.70;;;;;;5017926;28;20045;-57
2021/04/22 01:47:12;;;;;;;20.20;5.55;;;5.70;72.70;;;;;;5018676;28;20036;-57
2021/04/22 01:49:37;;;;;;;15.43;4.60;;;5.50;73.40;;;;;;5018464;28;20038;-58
2021/04/22 01:52:03;;;;;;;19.90;6.05;;;5.40;74.00;;;;;;5039541;28;20048;-53
2021/04/22 01:54:28;;;;;;;15.50;5.47;;;5.40;74.00;;;;;;5016051;28;20053;-58
2021/04/22 01:56:54;;;;;;;16.48;5.22;;;5.50;73.10;;;;;;5033427;28;20056;-56
2021/04/22 01:59:20;;;;;;;21.33;6.20;;;5.40;73.30;;;;;;5027863;28;20057;-59
2021/04/22 02:01:45;;;;;;;21.35;5.65;;;5.40;73.60;;;;;;5015982;28;20092;-57
2021/04/22 02:04:11;;;;;;;15.60;5.63;;;5.50;73.30;;;;;;5027121;28;20040;-59
2021/04/22 02:06:36;;;;;;;23.25;6.20;;;5.30;73.80;;;;;;5029272;28;20022;-57
2021/04/22 02:09:02;;;;;;;17.90;5.75;;;5.20;74.20;;;;;;5038926;28;20041;-58
2021/04/22 02:11:28;;;;;;;17.55;5.68;;;5.20;74.30;;;;;;5015143;28;20041;-55
2021/04/22 02:13:53;;;;;;;15.73;5.32;;;5.20;74.00;;;;;;5040848;28;20041;-56
2021/04/22 02:16:19;;;;;;;21.73;6.50;;;5.30;73.60;;;;;;5029167;28;20057;-62
2021/04/22 02:18:45;;;;;;;12.85;5.68;;;5.20;73.60;;;;;;5019869;28;20592;-55
2021/04/22 02:21:10;;;;;;;18.65;5.88;;;5.40;73.30;;;;;;5018858;28;20507;-57
2021/04/22 02:23:36;;;;;;;19.73;6.00;;;5.40;73.20;;;;;;5022773;28;20037;-58
2021/04/22 02:26:02;;;;;;;19.90;5.57;;;5.40;73.20;;;;;;5038560;28;20056;-59
2021/04/22 02:28:27;;;;;;;19.40;5.78;;;5.30;73.30;;;;;;5036550;28;20500;-59
2021/04/22 02:30:53;;;;;;;21.70;6.22;;;5.40;73.00;;;;;;5038011;28;20041;-57
2021/04/22 02:33:19;;;;;;;16.45;6.22;;;5.30;73.60;;;;;;5030933;28;20045;-57
2021/04/22 02:35:48;;;;;;;23.33;5.80;;;5.20;73.90;;;;;;5033815;28;20550;-58
2021/04/22 02:38:15;;;;;;;21.13;5.50;;;5.30;73.70;;;;;;5017028;28;20412;-59
2021/04/22 02:40:43;;;;;;;17.40;6.20;;;5.40;73.10;;;;;;5028143;28;20030;-58
2021/04/22 02:43:12;;;;;;;14.27;6.20;;;5.50;72.70;;;;;;5025532;28;20428;-56
2021/04/22 02:45:41;;;;;;;22.13;6.90;;;5.50;72.70;;;;;;5017411;28;20036;-58
2021/04/22 02:48:08;;;;;;;24.88;8.13;;;5.40;72.90;;;;;;5013677;28;20041;-57
2021/04/22 02:50:36;;;;;;;14.30;6.47;;;5.40;72.90;;;;;;5043099;28;20041;-58
2021/04/22 02:53:02;;;;;;;26.58;6.13;;;5.30;73.30;;;;;;5028119;28;20088;-59
2021/04/22 02:55:28;;;;;;;23.48;5.90;;;5.10;74.10;;;;;;5023690;28;20036;-58
2021/04/22 02:57:54;;;;;;;24.70;7.38;;;5.00;74.70;;;;;;5023674;28;20026;-58
2021/04/22 03:00:22;;;;;;;19.10;6.38;;;5.30;73.90;;;;;;5027417;28;20082;-58
2021/04/22 03:02:48;;;;;;;18.20;6.38;;;5.20;73.40;;;;;;5025526;28;20029;-61
2021/04/22 03:05:15;;;;;;;15.90;6.85;;;5.00;73.90;;;;;;5035663;28;20038;-58
2021/04/22 03:07:41;;;;;;;20.33;6.10;;;5.10;73.40;;;;;;5018589;28;20037;-56
2021/04/22 03:10:08;;;;;;;19.70;5.60;;;5.10;73.30;;;;;;5016804;28;20026;-56
2021/04/22 03:12:35;;;;;;;20.73;6.38;;;5.00;73.60;;;;;;5031118;28;20408;-56
2021/04/22 03:15:01;;;;;;;16.67;6.05;;;5.00;73.20;;;;;;5033489;28;20156;-57
2021/04/22 03:17:27;;;;;;;23.58;6.65;;;5.10;72.70;;;;;;5030015;28;20533;-57
2021/04/22 03:19:53;;;;;;;25.00;6.38;;;5.10;72.60;;;;;;5021488;28;20057;-58
2021/04/22 03:22:18;;;;;;;22.40;6.55;;;5.10;72.60;;;;;;5034146;28;20034;-58
2021/04/22 03:24:44;;;;;;;19.65;6.15;;;5.20;72.50;;;;;;5036755;28;20034;-59
2021/04/22 03:27:09;;;;;;;17.63;6.10;;;5.20;72.60;;;;;;5028779;28;20100;-58
2021/04/22 03:29:35;;;;;;;19.23;6.47;;;5.30;72.00;;;;;;5037529;28;20071;-59
2021/04/22 03:32:01;;;;;;;19.40;6.75;;;4.90;73.50;;;;;;5034527;28;20121;-57
2021/04/22 03:34:27;;;;;;;18.98;6.70;;;4.50;75.20;;;;;;5026872;28;20436;-57
2021/04/22 03:36:52;;;;;;;19.40;7.30;;;4.50;75.50;;;;;;5026374;28;20379;-58
2021/04/22 03:39:18;;;;;;;21.08;6.18;;;4.40;75.50;;;;;;5021074;28;20065;-55
2021/04/22 03:41:43;;;;;;;22.25;7.53;;;4.60;74.80;;;;;;5033256;28;20036;-58
2021/04/22 03:44:09;;;;;;;28.58;6.63;;;4.60;75.00;;;;;;5032061;28;20037;-57
2021/04/22 03:46:34;;;;;;;17.20;6.15;;;4.30;75.60;;;;;;5021588;28;20497;-60
2021/04/22 03:49:00;;;;;;;22.38;8.40;;;4.30;76.00;;;;;;5032308;28;20026;-58
2021/04/22 03:51:26;;;;;;;20.70;6.88;;;4.30;76.30;;;;;;5023086;28;20044;-58
2021/04/22 03:53:52;;;;;;;26.73;7.68;;;4.30;76.80;;;;;;5045280;28;20091;-58
2021/04/22 03:56:18;;;;;;;15.95;6.85;;;4.20;77.40;;;;;;5028936;28;20122;-57
2021/04/22 03:58:44;;;;;;;18.27;6.95;;;4.20;78.10;;;;;;5044605;28;20029;-58
2021/04/22 04:01:10;;;;;;;17.77;7.00;;;4.30;77.40;;;;;;5016722;28;20053;-57
2021/04/22 04:03:36;;;;;;;18.10;6.82;;;4.30;77.30;;;;;;5012755;28;20032;-58
2021/04/22 04:06:01;;;;;;;22.45;7.40;;;4.40;77.20;;;;;;5016314;28;20029;-57
2021/04/22 04:08:27;;;;;;;18.42;6.60;;;4.30;77.50;;;;;;5032351;28;20116;-59
2021/04/22 04:10:52;;;;;;;24.75;8.20;;;4.40;76.90;;;;;;5026128;28;20068;-58
2021/04/22 04:13:18;;;;;;;24.90;6.90;;;4.20;77.90;;;;;;4999696;28;20045;-58
2021/04/22 04:15:46;;;;;;;24.50;7.35;;;4.10;78.20;;;;;;5026700;28;20033;-59
2021/04/22 04:18:18;;;;;;;22.80;7.57;;;4.10;78.00;;;;;;5028074;28;20033;-59
2021/04/22 04:20:43;;;;;;;23.00;6.93;;;4.00;78.80;;;;;;5033029;28;20075;-57
2021/04/22 04:23:09;;;;;;;21.58;7.22;;;4.00;78.90;;;;;;5030015;28;20034;-59
2021/04/22 04:25:35;;;;;;;20.23;7.28;;;4.00;78.60;;;;;;5043402;28;20037;-56
2021/04/22 04:28:00;;;;;;;21.20;6.05;;;4.00;78.50;;;;;;5032856;28;20045;-59
2021/04/22 04:30:26;;;;;;;23.50;7.00;;;4.00;79.00;;;;;;5041694;28;20035;-58
2021/04/22 04:32:51;;;;;;;16.67;6.40;;;3.80;79.30;;;;;;5032063;28;20029;-60
2021/04/22 04:35:17;;;;;;;23.17;6.93;;;3.90;78.90;;;;;;5028153;28;20064;-58
2021/04/22 04:37:43;;;;;;;25.25;7.50;;;4.00;78.40;;;;;;5013007;28;20026;-56
2021/04/22 04:40:11;;;;;;;16.92;7.25;;;4.10;77.70;;;;;;5026711;28;20045;-57
2021/04/22 04:42:38;;;;;;;23.23;7.63;;;4.10;78.20;;;;;;5029893;28;20120;-56
2021/04/22 04:45:13;;;;;;;20.20;6.63;;;3.90;78.70;;;;;;5039290;28;20033;-56
2021/04/22 04:47:38;;;;;;;25.02;7.88;;;3.90;78.90;;;;;;5027509;28;20039;-59
2021/04/22 04:50:06;;;;;;;20.58;7.15;;;4.10;78.10;;;;;;5034789;28;20042;-58
2021/04/22 04:52:32;;;;;;;20.35;7.18;;;4.40;77.40;;;;;;5028276;28;20039;-57
2021/04/22 04:54:58;;;;;;;22.40;6.10;;;4.40;76.90;;;;;;5034471;28;20032;-59
2021/04/22 04:57:23;;;;;;;17.30;5.85;;;4.50;76.10;;;;;;5033826;28;20117;-56
2021/04/22 04:59:49;;;;;;;18.08;8.15;;;4.60;76.20;;;;;;5034271;28;20040;-56
2021/04/22 05:02:15;;;;;;;26.70;7.35;;;4.60;76.10;;;;;;5037575;28;20366;-57
2021/04/22 05:04:40;;;;;;;18.10;6.45;;;4.60;76.30;;;;;;5025842;28;20038;-56
2021/04/22 05:07:06;;;;;;;24.15;7.32;;;4.60;76.70;;;;;;5040406;28;20060;-56
2021/04/22 05:09:32;;;;;;;18.90;7.20;;;4.60;76.80;;;;;;5048952;28;20382;-58
2021/04/22 05:11:57;;;;;;;20.55;6.57;;;4.70;76.60;;;;;;5036643;28;20061;-59
2021/04/22 05:14:23;;;;;;;18.13;6.40;;;4.70;76.40;;;;;;5035444;28;20130;-58
2021/04/22 05:16:48;;;;;;;20.10;6.47;;;4.80;76.40;;;;;;5033855;28;20037;-59
2021/04/22 05:19:14;;;;;;;24.67;7.65;;;4.70;76.90;;;;;;5034173;28;20041;-58
2021/04/22 05:21:40;;;;;;;20.50;7.60;;;4.50;77.60;;;;;;5021669;28;20042;-57
2021/04/22 05:24:06;;;;;;;15.85;6.47;;;4.50;78.40;;;;;;5030459;28;20489;-59
2021/04/22 05:26:31;;;;;;;21.40;6.82;;;4.80;77.90;;;;;;5046010;28;20037;-60
2021/04/22 05:28:57;;;;;;;24.13;7.20;;;4.90;77.10;;;;;;5033728;28;20033;-55
2021/04/22 05:31:23;;;;;;;17.98;7.10;;;4.90;77.10;;;;;;5041710;28;20037;-57
2021/04/22 05:33:49;;;;;;;23.60;6.32;;;5.10;76.00;;;;;;5026474;28;20109;-57
2021/04/22 05:36:15;;;;;;;25.70;6.38;;;5.20;75.00;;;;;;5029329;28;20025;-58
2021/04/22 05:38:40;;;;;;;17.05;5.03;;;5.20;75.80;;;;;;5023705;28;20465;-59
2021/04/22 05:41:06;;;;;;;16.58;5.97;;;5.40;73.80;;;;;;5034438;28;20029;-59
2021/04/22 05:43:32;;;;;;;19.60;6.55;;;5.40;73.90;;;;;;5028305;28;20040;-59
2021/04/22 05:45:59;;;;;;;15.35;5.60;;;5.30;73.30;;;;;;5030362;28;20037;-57
2021/04/22 05:48:24;;;;;;;14.65;5.80;;;5.40;73.60;;;;;;5032919;28;20473;-55
2021/04/22 05:50:50;;;;;;;16.35;5.28;;;5.50;72.70;;;;;;5034892;28;20057;-58
2021/04/22 05:53:16;;;;;;;19.60;5.70;;;5.50;72.40;;;;;;5036738;28;20039;-58
2021/04/22 05:55:42;;;;;;;20.90;5.72;;;5.50;72.30;;;;;;5043654;28;20195;-58
2021/04/22 05:58:08;;;;;;;19.83;5.57;;;5.60;72.80;;;;;;5034196;28;20137;-57
2021/04/22 06:00:34;;;;;;;14.80;5.10;;;5.60;72.30;;;;;;5023790;28;20033;-60
2021/04/22 06:02:59;;;;;;;21.00;5.95;;;5.70;72.00;;;;;;5035076;28;20051;-58
2021/04/22 06:05:26;;;;;;;14.98;5.47;;;5.70;71.60;;;;;;5034482;28;20477;-58
2021/04/22 06:07:52;;;;;;;17.88;5.28;;;5.80;71.90;;;;;;5035770;28;20447;-58
2021/04/22 06:10:19;;;;;;;18.77;5.65;;;5.70;71.70;;;;;;5033299;28;20026;-56
2021/04/22 06:12:46;;;;;;;19.85;5.57;;;5.60;73.40;;;;;;5026843;28;20091;-59
2021/04/22 06:15:13;;;;;;;22.17;6.32;;;5.60;73.40;;;;;;5029418;28;20078;-59
2021/04/22 06:17:38;;;;;;;19.83;6.60;;;5.60;73.00;;;;;;5033959;28;20096;-57
2021/04/22 06:20:16;;;;;;;19.00;5.90;;;5.70;72.60;;;;;;5016441;28;20038;-57
2021/04/22 06:22:42;;;;;;;19.73;6.22;;;5.80;72.40;;;;;;5038137;28;20111;-56
2021/04/22 06:25:09;;;;;;;17.55;5.40;;;5.70;73.10;;;;;;5038370;28;20636;-58
2021/04/22 06:27:34;;;;;;;16.50;5.65;;;5.70;72.60;;;;;;5034424;28;20397;-59
2021/04/22 06:30:00;;;;;;;17.23;5.25;;;5.70;72.70;;;;;;5040920;28;20045;-56
2021/04/22 06:32:26;;;;;;;21.38;6.47;;;5.70;72.90;;;;;;5020391;28;20399;-57
2021/04/22 06:34:52;;;;;;;15.00;5.78;;;5.80;72.30;;;;;;5031338;28;20117;-57
2021/04/22 06:37:17;;;;;;;16.85;5.28;;;6.10;71.70;;;;;;5022709;28;20440;-54
2021/04/22 06:39:43;;;;;;;17.33;5.05;;;6.20;71.20;;;;;;5034515;28;20046;-57
2021/04/22 06:42:09;;;;;;;14.20;4.70;;;6.20;71.50;;;;;;5034150;28;20103;-58
2021/04/22 06:44:35;;;;;;;22.85;5.97;;;6.30;69.80;;;;;;5033829;28;20112;-58
2021/04/22 06:47:00;;;;;;;19.02;5.90;;;6.30;69.80;;;;;;5021150;28;20063;-56
2021/04/22 06:49:27;;;;;;;20.55;6.00;;;6.20;70.80;;;;;;5030848;28;20028;-58
2021/04/22 06:51:53;;;;;;;17.33;6.25;;;6.30;70.00;;;;;;5030711;28;20025;-58
2021/04/22 06:54:19;;;;;;;18.73;5.93;;;6.50;68.60;;;;;;5034071;28;20022;-56
2021/04/22 06:56:44;;;;;;;21.08;5.18;;;6.50;68.90;;;;;;5033525;28;20049;-58
2021/04/22 06:59:11;;;;;;;17.27;5.32;;;6.60;68.80;;;;;;5030803;28;20029;-58
2021/04/22 07:01:37;;;;;;;21.05;5.72;;;6.60;67.30;;;;;;5025456;28;20045;-59
2021/04/22 07:04:04;;;;;;;27.05;7.15;;;6.60;67.00;;;;;;5028729;28;20033;-58
2021/04/22 07:06:30;;;;;;;19.02;5.50;;;6.70;66.90;;;;;;5030399;28;20063;-59
2021/04/22 07:08:56;;;;;;;22.98;6.13;;;6.40;67.00;;;;;;5031129;28;20053;-61
2021/04/22 07:11:21;;;;;;;21.67;5.53;;;6.50;67.20;;;;;;5032503;28;20539;-56
2021/04/22 07:13:47;;;;;;;22.55;6.50;;;6.60;66.20;;;;;;5035046;28;20033;-58
2021/04/22 07:16:13;;;;;;;19.17;6.43;;;6.80;67.70;;;;;;5024570;28;20030;-58
2021/04/22 07:18:38;;;;;;;19.52;5.88;;;6.90;65.10;;;;;;5029267;28;20044;-58
2021/04/22 07:21:04;;;;;;;21.88;6.07;;;6.60;64.50;;;;;;5032403;28;20045;-59
2021/04/22 07:23:30;;;;;;;15.93;5.68;;;6.60;65.30;;;;;;5032402;28;20053;-58
2021/04/22 07:25:55;;;;;;;18.98;5.45;;;6.50;65.50;;;;;;5032585;28;20080;-59
2021/04/22 07:28:21;;;;;;;26.50;6.40;;;6.60;65.90;;;;;;5023315;28;20117;-59
2021/04/22 07:30:47;;;;;;;16.45;4.60;;;6.80;66.00;;;;;;5034731;28;20032;-57
2021/04/22 07:33:13;;;;;;;8.57;4.00;;;7.00;64.30;;;;;;5032167;28;20397;-57
2021/04/22 07:35:39;;;;;;;12.57;5.10;;;6.90;64.50;;;;;;5033049;28;20124;-57
2021/04/22 07:38:06;;;;;;;15.02;5.43;;;6.70;64.80;;;;;;5038536;28;20074;-59
2021/04/22 07:40:32;;;;;;;12.52;4.13;;;6.70;65.40;;;;;;5021126;28;20133;-59
2021/04/22 07:42:58;;;;;;;21.42;6.43;;;6.80;65.20;;;;;;5025587;28;20565;-58
2021/04/22 07:45:29;;;;;;;15.45;5.75;;;6.70;65.10;;;;;;5018386;28;20038;-57
2021/04/22 07:47:55;;;;;;;20.73;5.22;;;6.70;64.90;;;;;;5019839;28;20041;-59
2021/04/22 07:50:21;;;;;;;17.13;6.18;;;6.80;64.80;;;;;;5034857;28;20038;-57
2021/04/22 07:52:48;;;;;;;11.45;4.50;;;6.80;65.20;;;;;;5035859;28;20120;-59
2021/04/22 07:55:21;;;;;;;16.35;5.22;;;7.00;65.00;;;;;;5023022;28;20029;-57
2021/04/22 07:57:49;;;;;;;10.57;4.35;;;6.90;66.00;;;;;;5022664;28;20026;-57
2021/04/22 08:00:19;;;;;;;12.27;4.32;;;7.00;65.40;;;;;;5031873;28;20417;-59
2021/04/22 08:02:45;;;;;;;15.48;5.13;;;6.90;65.10;;;;;;5013731;28;20520;-60
2021/04/22 08:05:12;;;;;;;11.90;5.13;;;6.80;65.40;;;;;;5028934;28;20045;-60
2021/04/22 08:07:38;;;;;;;20.13;5.15;;;6.90;65.30;;;;;;5031760;28;20124;-58
2021/04/22 08:10:12;;;;;;;19.92;5.78;;;6.80;65.50;;;;;;5033567;28;20148;-58
2021/04/22 08:12:38;;;;;;;24.60;5.70;;;7.00;64.80;;;;;;5037650;28;20121;-58
2021/04/22 08:15:08;;;;;;;13.50;4.68;;;6.70;65.00;;;;;;5032731;28;20175;-61
2021/04/22 08:17:35;;;;;;;11.93;4.93;;;6.60;65.40;;;;;;5031924;28;20034;-58
2021/04/22 08:20:06;;;;;;;12.60;5.35;;;6.70;65.90;;;;;;5025781;28;20078;-60
2021/04/22 08:22:33;;;;;;;15.27;4.82;;;6.90;65.90;;;;;;5031312;28;20037;-58
2021/04/22 08:24:59;;;;;;;18.67;6.13;;;7.10;65.00;;;;;;5031961;28;20025;-59
2021/04/22 08:27:25;;;;;;;17.65;5.55;;;7.20;65.00;;;;;;5030853;28;20132;-57
2021/04/22 08:29:51;;;;;;;11.63;5.28;;;7.40;64.60;;;;;;5032490;28;20422;-57
2021/04/22 08:32:16;;;;;;;11.15;5.30;;;7.30;64.00;;;;;;5030978;28;20033;-54
2021/04/22 08:34:42;;;;;;;17.83;5.95;;;7.30;64.70;;;;;;5033452;28;20047;-57
2021/04/22 08:37:07;;;;;;;14.90;5.65;;;7.20;65.00;;;;;;5032193;28;20032;-58
2021/04/22 08:39:33;;;;;;;21.77;6.75;;;7.30;64.20;;;;;;5026821;28;21646;-58
2021/04/22 08:41:59;;;;;;;13.68;6.38;;;7.40;64.40;;;;;;5031677;28;20040;-53
2021/04/22 08:44:25;;;;;;;22.73;5.60;;;7.40;64.80;;;;;;5030271;28;20381;-57
2021/04/22 08:46:50;;;;;;;13.02;4.70;;;7.40;65.20;;;;;;5015890;28;20038;-58
2021/04/22 08:49:16;;;;;;;20.85;5.20;;;7.40;63.90;;;;;;5012256;28;20037;-61
2021/04/22 08:51:42;;;;;;;15.57;5.07;;;7.30;62.00;;;;;;5016140;28;20485;-58
2021/04/22 08:54:07;;;;;;;13.05;4.20;;;7.10;62.50;;;;;;5029254;28;20044;-55
2021/04/22 08:56:37;;;;;;;12.77;4.88;;;7.30;62.20;;;;;;5017242;28;20502;-55
2021/04/22 08:59:04;;;;;;;15.90;5.25;;;7.40;62.60;;;;;;5019869;28;20033;-58
2021/04/22 09:01:32;;;;;;;13.68;5.38;;;7.50;62.80;;;;;;5029574;28;20026;-59
2021/04/22 09:04:00;;;;;;;14.00;4.88;;;7.60;62.10;;;;;;5023141;28;20038;-56
2021/04/22 09:06:26;;;;;;;14.93;5.30;;;7.50;62.40;;;;;;5039997;28;20491;-58
2021/04/22 09:08:53;;;;;;;10.85;4.53;;;7.60;63.00;;;;;;5044655;28;20022;-56
2021/04/22 09:11:25;;;;;;;14.23;4.82;;;7.50;63.10;;;;;;5031807;28;20033;-57
2021/04/22 09:13:52;;;;;;;11.63;4.75;;;7.60;62.80;;;;;;5036914;28;20021;-56
2021/04/22 09:16:21;;;;;;;14.13;5.55;;;7.60;62.40;;;;;;5037982;28;20390;-58
2021/04/22 09:18:51;;;;;;;10.90;6.07;;;7.60;62.70;;;;;;5044879;28;20030;-56
2021/04/22 09:21:32;;;;;;;10.35;4.50;;;7.70;63.10;;;;;;5031196;28;20033;-54
2021/04/22 09:24:03;;;;;;;16.02;4.90;;;7.80;62.20;;;;;;5025761;28;20030;-56
2021/04/22 09:26:38;;;;;;;14.70;4.80;;;7.80;62.30;;;;;;5041437;28;20052;-55
2021/04/22 09:29:04;;;;;;;12.55;4.63;;;7.80;62.20;;;;;;5028163;28;20026;-56
2021/04/22 09:31:30;;;;;;;11.00;4.80;;;7.80;62.20;;;;;;5015841;28;20034;-58
2021/04/22 09:34:05;;;;;;;12.63;5.25;;;8.00;61.90;;;;;;5026887;28;20382;-57
2021/04/22 09:36:57;;;;;;;14.77;5.03;;;8.10;61.00;;;;;;5010545;28;20482;-55
2021/04/22 09:39:27;;;;;;;17.05;5.95;;;8.20;61.00;;;;;;5015645;28;20049;-58
2021/04/22 09:41:59;;;;;;;11.13;5.20;;;8.40;60.70;;;;;;5043677;28;20025;-59
2021/04/22 09:44:25;;;;;;;13.80;5.30;;;8.30;59.90;;;;;;5017695;28;20149;-57
2021/04/22 09:47:12;;;;;;;14.48;5.18;;;8.40;59.90;;;;;;5022938;28;20090;-55
2021/04/22 09:50:00;;;;;;;14.55;4.90;;;8.30;60.60;;;;;;5040789;28;20472;-56
2021/04/22 09:52:38;;;;;;;15.88;5.45;;;8.40;60.80;;;;;;5033078;28;20132;-55
2021/04/22 09:55:05;;;;;;;12.88;4.47;;;8.40;60.70;;;;;;5035658;28;20033;-57
2021/04/22 09:57:35;;;;;;;15.55;5.10;;;8.20;61.50;;;;;;5031694;28;20500;-59
2021/04/22 10:00:13;;;;;;;13.13;4.78;;;8.50;61.30;;;;;;5033848;28;20099;-55
2021/04/22 10:02:53;;;;;;;12.10;4.95;;;8.40;61.20;;;;;;5035262;28;20346;-59
2021/04/22 10:05:33;;;;;;;14.43;5.05;;;8.30;62.10;;;;;;5032631;28;20674;-58
2021/04/22 10:08:03;;;;;;;12.13;6.15;;;8.30;62.50;;;;;;5039963;28;20029;-59
2021/04/22 10:10:29;;;;;;;10.30;5.18;;;8.40;62.40;;;;;;5034009;28;20030;-55
2021/04/22 10:13:00;;;;;;;10.65;4.85;;;8.60;61.70;;;;;;5026665;28;20029;-58
2021/04/22 10:15:26;;;;;;;17.00;5.45;;;8.70;61.40;;;;;;5034331;28;20033;-56
2021/04/22 10:17:56;;;;;;;11.88;5.47;;;8.70;62.00;;;;;;5020968;28;20342;-58
2021/04/22 10:20:24;;;;;;;14.65;5.47;;;8.80;61.20;;;;;;5022602;28;20030;-58
2021/04/22 10:22:53;;;;;;;11.77;5.40;;;8.50;61.90;;;;;;5026668;28;20432;-56
2021/04/22 10:25:31;;;;;;;13.50;6.18;;;8.50;62.10;;;;;;5029986;28;20701;-55
2021/04/22 10:28:16;;;;;;;8.48;4.70;;;8.80;61.70;;;;;;5031450;28;20184;-57
2021/04/22 10:30:42;;;;;;;;;;;8.80;61.10;;;;;;5030638;28;20033;-60
2021/04/22 10:33:09;;;;;;;11.32;5.40;;;8.80;61.80;;;;;;5026519;28;19928;-56
2021/04/22 10:35:37;;;;;;;16.38;6.35;;;8.80;61.90;;;;;;5014607;28;20117;-56
2021/04/22 10:38:04;;;;;;;11.63;4.63;;;8.70;61.90;;;;;;5030057;28;20041;-57
2021/04/22 10:40:37;;;;;;;13.75;4.90;;;8.80;61.80;;;;;;5033655;28;20033;-58
2021/04/22 10:43:05;;;;;;;14.57;6.32;;;8.90;60.20;;;;;;5027958;28;20086;-56
2021/04/22 10:45:33;;;;;;;13.60;5.78;;;8.70;61.20;;;;;;5027907;28;20041;-58
2021/04/22 10:47:58;;;;;;;13.25;6.55;;;8.70;62.10;;;;;;5045385;28;20037;-58
2021/04/22 10:50:37;;;;;;;17.60;6.68;;;8.80;62.10;;;;;;5024871;28;20033;-59
2021/04/22 10:53:09;;;;;;;13.93;5.88;;;9.00;62.20;;;;;;5035721;28;20053;-56
2021/04/22 10:55:38;;;;;;;13.43;6.10;;;9.10;61.10;;;;;;5035781;28;20091;-56
2021/04/22 10:58:16;;;;;;;13.25;5.90;;;8.90;61.00;;;;;;5023936;28;20447;-58
2021/04/22 11:01:04;;;;;;;11.18;5.47;;;9.10;60.70;;;;;;5030725;28;20508;-57
2021/04/22 11:03:31;;;;;;;11.77;6.72;;;9.20;61.20;;;;;;5020094;28;20055;-54
2021/04/22 11:06:03;;;;;;;11.52;5.93;;;9.30;61.00;;;;;;5046465;28;20024;-56
2021/04/22 11:08:49;;;;;;;13.73;6.30;;;9.20;61.20;;;;;;5040223;28;20025;-58
2021/04/22 11:11:32;;;;;;;11.18;6.03;;;9.00;61.50;;;;;;5026044;28;20226;-53
2021/04/22 11:14:13;;;;;;;10.48;5.50;;;9.00;61.00;;;;;;5031092;28;20042;-53
2021/04/22 11:16:41;;;;;;;12.35;6.07;;;8.90;61.10;;;;;;5030617;28;20604;-58
2021/04/22 11:19:18;;;;;;;14.55;6.32;;;9.10;60.60;;;;;;5028767;28;20091;-57
2021/04/22 11:22:18;;;;;;;16.85;7.35;;;9.10;59.30;;;;;;5034922;28;20042;-59
2021/04/22 11:24:57;;;;;;;16.17;8.35;;;9.10;60.80;;;;;;5031763;28;20083;-58
2021/04/22 11:27:25;;;;;;;17.83;8.13;;;9.20;60.30;;;;;;5032258;28;20377;-57
2021/04/22 11:29:58;;;;;;;34.47;11.23;;;9.30;60.40;;;;;;5032135;28;20037;-58
2021/04/22 11:32:32;;;;;;;21.23;7.93;;;9.30;61.10;;;;;;5032918;28;20029;-57
2021/04/22 11:35:14;;;;;;;12.82;6.47;;;9.40;61.10;;;;;;5026344;28;20108;-57
2021/04/22 11:37:46;;;;;;;14.00;5.78;;;9.20;60.80;;;;;;5031879;28;20037;-59
2021/04/22 11:40:47;;;;;;;13.60;5.63;;;9.20;60.90;;;;;;5037893;28;20029;-55
2021/04/22 11:43:25;;;;;;;13.85;6.30;;;9.30;61.30;;;;;;5048385;28;20044;-59
2021/04/22 11:45:53;;;;;;;16.88;6.25;;;9.50;60.60;;;;;;5036630;28;20033;-57
2021/04/22 11:48:20;;;;;;;16.50;5.80;;;9.40;60.90;;;;;;5035237;28;20053;-58
2021/04/22 11:50:49;;;;;;;11.32;5.70;;;9.40;60.30;;;;;;5041729;28;20468;-57
2021/04/22 11:53:16;;;;;;;19.95;8.20;;;9.50;59.30;;;;;;5018859;28;20037;-58
2021/04/22 11:55:51;;;;;;;14.38;6.30;;;9.50;58.90;;;;;;5024637;28;20127;-58
2021/04/22 11:58:21;;;;;;;11.27;5.20;;;9.50;59.60;;;;;;5026191;28;20137;-61
2021/04/22 12:00:51;;;;;;;14.73;5.70;;;9.50;59.00;;;;;;5034847;28;20043;-58
2021/04/22 12:03:23;;;;;;;18.52;6.32;;;9.40;58.80;;;;;;5040133;28;20041;-56
2021/04/22 12:05:53;;;;;;;16.63;6.38;;;9.60;58.80;;;;;;5024853;28;20099;-58
2021/04/22 12:08:31;;;;;;;9.05;6.03;;;9.80;58.10;;;;;;5029426;28;20061;-58
2021/04/22 12:10:59;;;;;;;12.02;5.65;;;10.00;58.10;;;;;;5039672;28;20385;-56
2021/04/22 12:13:27;;;;;;;11.30;5.43;;;10.00;57.30;;;;;;5033773;28;20030;-57
2021/04/22 12:15:58;;;;;;;10.05;5.18;;;10.20;57.50;;;;;;5027397;28;20051;-58
2021/04/22 12:18:29;;;;;;;10.40;4.63;;;10.30;56.00;;;;;;5011985;28;20026;-59
2021/04/22 12:21:18;;;;;;;13.93;5.00;;;10.40;56.40;;;;;;5032507;28;20101;-58
2021/04/22 12:23:47;;;;;;;12.00;5.35;;;10.50;55.80;;;;;;5027069;28;20033;-56
2021/04/22 12:26:14;;;;;;;15.85;5.82;;;10.40;56.60;;;;;;5026899;28;20524;-57
2021/04/22 12:28:53;;;;;;;12.93;5.88;;;10.40;57.70;;;;;;5035417;28;20171;-57
2021/04/22 12:31:35;;;;;;;17.80;5.63;;;10.20;58.10;;;;;;5011551;28;20037;-58
2021/04/22 12:34:09;;;;;;;15.48;5.63;;;10.40;57.30;;;;;;5020732;28;20035;-58
2021/04/22 12:36:36;;;;;;;15.27;6.47;;;10.70;56.80;;;;;;5026213;28;20109;-56
2021/04/22 12:39:04;;;;;;;18.05;6.70;;;10.90;56.30;;;;;;5011777;28;20048;-59
2021/04/22 12:41:31;;;;;;;15.75;5.70;;;11.10;56.90;;;;;;5029675;28;20033;-54
2021/04/22 12:43:56;;;;;;;11.88;5.20;;;11.30;53.50;;;;;;5029086;28;20033;-60
2021/04/22 12:46:23;;;;;;;15.75;5.80;;;11.20;51.80;;;;;;5033762;28;20037;-55
2021/04/22 12:48:55;;;;;;;12.55;5.68;;;10.90;53.30;;;;;;5031248;28;20474;-57
2021/04/22 12:51:29;;;;;;;18.33;5.68;;;10.70;55.20;;;;;;5033377;28;20087;-56